Quasimodo — DC7624 — position and weather

sailwx.info

Track history (hours):
 
Tides and Currents Weather Stations Pressure Air Temp Water Temp Dewpoint Dewpoint Depression Visibility Wind Speed Wind Dir Waves Ship Positions

Quasimodo

Last reported at 2018-Feb-14 20:58 UTC. Time now 2018-Feb-21 17:36 UTC.
Position N 44°29' E 022°11'.

Length 110 m; draft 0.2 m.

Type: Ship. MMSI: 2525526.

Date/timePositionNaut miles runAvg speedWind from/ knotsBaromVisibWave heightAir tempDewpointWater temp
2018-Feb-14 20:58N 44°29' E 022°11'3 7.3
2018-Feb-14 20:30N 44°29' E 022°07'4 7.3
2018-Feb-14 20:00N 44°32' E 022°04'18 7.2
2018-Feb-14 17:32N 44°40' E 021°41'0 1.7
2018-Feb-14 17:30N 44°40' E 021°41'34 1.5
2018-Feb-13 19:09N 44°40' E 020°53'0 0.4
2018-Feb-13 18:59N 44°40' E 020°53'3 5.7
2018-Feb-13 18:30N 44°39' E 020°49'4 8.2
2018-Feb-13 18:00N 44°41' E 020°44'4 8.2
2018-Feb-13 17:30N 44°44' E 020°40'4 7.7
2018-Feb-13 17:00N 44°47' E 020°38'4 7.5
2018-Feb-13 16:30N 44°51' E 020°38'4 7.8
2018-Feb-13 16:00N 44°50' E 020°32'2 3.8
2018-Feb-13 15:30N 44°50' E 020°30'0 0.0
2018-Feb-13 15:00N 44°50' E 020°30'0 0.4
2018-Feb-13 14:30N 44°50' E 020°30'2 3.7
2018-Feb-13 14:00N 44°50' E 020°27'2 3.5
2018-Feb-13 13:30N 44°48' E 020°27'1 1.7
2018-Feb-13 13:00N 44°48' E 020°26'2 4.2
2018-Feb-13 12:30N 44°50' E 020°27'2 2.9
2018-Feb-13 11:59N 44°48' E 020°27'1 2.7
2018-Feb-13 11:30N 44°48' E 020°25'3 5.6
2018-Feb-13 11:00N 44°47' E 020°22'2 3.2
2018-Feb-13 10:31N 44°45' E 020°20'0 0.2
2018-Feb-13 10:00N 44°45' E 020°20'0 0.5
2018-Feb-13 09:30N 44°46' E 020°21'0 0.2
2018-Feb-13 09:00N 44°46' E 020°21'0 0.2
2018-Feb-13 08:30N 44°45' E 020°21'0 0.1
2018-Feb-13 08:00N 44°45' E 020°21'0 0.0
2018-Feb-13 07:30N 44°45' E 020°21'0 0.0
2018-Feb-13 07:00N 44°45' E 020°21'0 0.0
2018-Feb-13 06:30N 44°45' E 020°21'0 0.3
2018-Feb-13 06:00N 44°46' E 020°21'0 0.0
2018-Feb-13 05:31N 44°46' E 020°21'0 0.0
2018-Feb-13 05:00N 44°46' E 020°21'0 0.0
2018-Feb-13 04:30N 44°46' E 020°21'0 0.0
2018-Feb-13 04:00N 44°46' E 020°21'0 0.0
2018-Feb-13 03:30N 44°46' E 020°21'0 0.0
2018-Feb-13 03:00N 44°46' E 020°21'0 0.0
2018-Feb-13 02:29N 44°46' E 020°21'0 0.0
2018-Feb-13 02:00N 44°46' E 020°21'0 0.0
2018-Feb-13 01:30N 44°46' E 020°21'0 0.0
2018-Feb-13 01:01N 44°46' E 020°21'0 0.0
2018-Feb-13 00:31N 44°46' E 020°21'0 0.0
2018-Feb-13 00:01N 44°46' E 020°21'0 0.0
2018-Feb-12 23:31N 44°46' E 020°21'0 0.0
2018-Feb-12 23:00N 44°46' E 020°21'0 0.0
2018-Feb-12 22:31N 44°46' E 020°21'0 0.0
2018-Feb-12 22:00N 44°46' E 020°21'0 0.0
2018-Feb-12 21:30N 44°46' E 020°21'0 0.0
2018-Feb-12 21:00N 44°46' E 020°21'0 0.0
2018-Feb-12 20:31N 44°46' E 020°21'0 0.0
2018-Feb-12 20:00N 44°46' E 020°21'0 0.0
2018-Feb-12 19:30N 44°46' E 020°21'0 0.0
2018-Feb-12 19:00N 44°46' E 020°21'0 0.0
2018-Feb-12 18:30N 44°46' E 020°21'0 0.0
2018-Feb-12 18:01N 44°46' E 020°21'0 0.0
2018-Feb-12 17:31N 44°46' E 020°21'0 0.0
2018-Feb-12 17:00N 44°46' E 020°21'0 0.0
2018-Feb-12 16:30N 44°46' E 020°21'1 1.3
2018-Feb-12 16:00N 44°45' E 020°20'1 1.4
2018-Feb-12 15:31N 44°46' E 020°21'0 0.0
2018-Feb-12 15:01N 44°46' E 020°21'0 0.0
2018-Feb-12 14:31N 44°46' E 020°21'0 0.0
2018-Feb-12 14:00N 44°46' E 020°21'0 0.0
2018-Feb-12 13:30N 44°46' E 020°21'0 0.0
2018-Feb-12 13:00N 44°46' E 020°21'0 0.0
2018-Feb-12 12:24N 44°46' E 020°21'0 0.0
2018-Feb-12 12:00N 44°46' E 020°21'0 0.0
2018-Feb-12 11:30N 44°46' E 020°21'0 0.0
2018-Feb-12 11:00N 44°46' E 020°21'0 0.0
2018-Feb-12 10:30N 44°46' E 020°21'0 0.0
2018-Feb-12 10:00N 44°46' E 020°21'0 0.0
2018-Feb-12 09:30N 44°46' E 020°21'0 0.0
2018-Feb-12 09:00N 44°46' E 020°21'0 0.0
2018-Feb-12 08:30N 44°46' E 020°21'0 0.0
2018-Feb-12 08:00N 44°46' E 020°21'0 0.0
2018-Feb-12 07:30N 44°46' E 020°21'0 0.0
2018-Feb-12 07:00N 44°46' E 020°21'0 0.0
2018-Feb-12 06:30N 44°46' E 020°21'0 0.0
2018-Feb-12 05:57N 44°46' E 020°21'0 0.0
2018-Feb-12 05:30N 44°46' E 020°21'0 0.0
2018-Feb-12 05:00N 44°46' E 020°21'0 0.0
2018-Feb-12 04:30N 44°46' E 020°21'0 0.0
2018-Feb-12 04:00N 44°46' E 020°21'0 0.0
2018-Feb-12 03:31N 44°46' E 020°21'0 0.0
2018-Feb-12 03:00N 44°46' E 020°21'0 0.0
2018-Feb-12 02:31N 44°46' E 020°21'0 0.0
2018-Feb-12 02:00N 44°46' E 020°21'0 0.0
2018-Feb-12 01:30N 44°46' E 020°21'0 0.0
2018-Feb-12 01:00N 44°46' E 020°21'0 0.0
2018-Feb-12 00:30N 44°46' E 020°21'0 0.0
2018-Feb-12 00:00N 44°46' E 020°21'0 0.0
2018-Feb-11 23:30N 44°46' E 020°21'0 0.0
2018-Feb-11 23:00N 44°46' E 020°21'0 0.0
2018-Feb-11 22:31N 44°46' E 020°21'0 0.0
2018-Feb-11 22:00N 44°46' E 020°21'0 0.0
2018-Feb-11 21:30N 44°46' E 020°21'0 0.0
2018-Feb-11 21:01N 44°46' E 020°21'0 0.0
2018-Feb-11 20:29N 44°46' E 020°21'0 0.0
2018-Feb-11 20:00N 44°46' E 020°21'0 0.0
2018-Feb-11 19:31N 44°46' E 020°21'0 0.0
2018-Feb-11 19:00N 44°46' E 020°21'0 0.0
2018-Feb-11 18:31N 44°46' E 020°21'0 0.0
2018-Feb-11 18:00N 44°46' E 020°21'0 0.0
2018-Feb-11 17:30N 44°46' E 020°21'0 0.0
2018-Feb-11 17:00N 44°46' E 020°21'0 0.0
2018-Feb-11 16:30N 44°46' E 020°21'0 0.0
2018-Feb-11 16:00N 44°46' E 020°21'0 0.0
2018-Feb-11 15:31N 44°46' E 020°21'0 0.0
2018-Feb-11 15:00N 44°46' E 020°21'0 0.0
2018-Feb-11 14:30N 44°46' E 020°21'0 0.0
2018-Feb-11 14:00N 44°46' E 020°21'0 0.0
2018-Feb-11 13:31N 44°46' E 020°21'0 0.0
2018-Feb-11 13:00N 44°46' E 020°21'0 0.0
2018-Feb-11 12:30N 44°46' E 020°21'0 0.0
2018-Feb-11 12:00N 44°46' E 020°21'0 0.0
2018-Feb-11 11:30N 44°46' E 020°21'0 0.0
2018-Feb-11 11:00N 44°46' E 020°21'0 0.0
2018-Feb-11 10:30N 44°46' E 020°21'0 0.0
2018-Feb-11 10:01N 44°46' E 020°21'0 0.0
2018-Feb-11 09:30N 44°46' E 020°21'0 0.0
2018-Feb-11 09:00N 44°46' E 020°21'0 0.0
2018-Feb-11 08:30N 44°46' E 020°21'0 0.0
2018-Feb-11 08:01N 44°46' E 020°21'0 0.0
2018-Feb-11 07:30N 44°46' E 020°21'0 0.0
2018-Feb-11 07:00N 44°46' E 020°21'0 0.0
2018-Feb-11 06:30N 44°46' E 020°21'0 0.0
2018-Feb-11 06:00N 44°46' E 020°21'0 0.0
2018-Feb-11 05:30N 44°46' E 020°21'0 0.0
2018-Feb-11 05:00N 44°46' E 020°21'0 0.0
2018-Feb-11 04:31N 44°46' E 020°21'0 0.0
2018-Feb-11 04:00N 44°46' E 020°21'0 0.0
2018-Feb-11 03:30N 44°46' E 020°21'0 0.0
2018-Feb-11 03:00N 44°46' E 020°21'0 0.0
2018-Feb-11 02:30N 44°46' E 020°21'0 0.0
2018-Feb-11 02:00N 44°46' E 020°21'0 0.0
2018-Feb-11 01:31N 44°46' E 020°21'0 0.0
2018-Feb-11 01:00N 44°46' E 020°21'0 0.0
2018-Feb-11 00:31N 44°46' E 020°21'0 0.0
2018-Feb-11 00:01N 44°46' E 020°21'0 0.0
2018-Feb-10 23:31N 44°46' E 020°21'0 0.0
2018-Feb-10 23:00N 44°46' E 020°21'0 0.0
2018-Feb-10 22:30N 44°46' E 020°21'0 0.0
2018-Feb-10 22:00N 44°46' E 020°21'0 0.0
2018-Feb-10 21:31N 44°46' E 020°21'0 0.0
2018-Feb-10 21:00N 44°46' E 020°21'0 0.0
2018-Feb-10 20:30N 44°46' E 020°21'0 0.0
2018-Feb-10 20:00N 44°46' E 020°21'0 0.0
2018-Feb-10 19:30N 44°46' E 020°21'0 0.0
2018-Feb-10 19:00N 44°46' E 020°21'0 0.0
2018-Feb-10 18:31N 44°46' E 020°21'0 0.0
2018-Feb-10 18:01N 44°46' E 020°21'0 0.0
2018-Feb-10 17:30N 44°46' E 020°21'0 0.0
2018-Feb-10 17:00N 44°46' E 020°21'0 0.0
2018-Feb-10 16:30N 44°46' E 020°21'0 0.0
2018-Feb-10 16:00N 44°46' E 020°21'0 0.0
2018-Feb-10 15:31N 44°46' E 020°21'0 0.0
2018-Feb-10 15:00N 44°46' E 020°21'0 0.0
2018-Feb-10 14:30N 44°46' E 020°21'0 0.0
2018-Feb-10 14:01N 44°46' E 020°21'0 0.0
2018-Feb-10 13:31N 44°46' E 020°21'0 0.0
2018-Feb-10 13:00N 44°46' E 020°21'0 0.0
2018-Feb-10 12:30N 44°46' E 020°21'0 0.0
2018-Feb-10 12:00N 44°46' E 020°21'0 0.0
2018-Feb-10 11:30N 44°46' E 020°21'0 0.0
2018-Feb-10 11:00N 44°46' E 020°21'0 0.0
2018-Feb-10 10:30N 44°46' E 020°21'0 0.0
2018-Feb-10 10:00N 44°46' E 020°21'0 0.0
2018-Feb-10 09:30N 44°46' E 020°21'0 0.0
2018-Feb-10 09:00N 44°46' E 020°21'0 0.0
2018-Feb-10 08:30N 44°46' E 020°21'0 0.0
2018-Feb-10 08:00N 44°46' E 020°21'0 0.0
2018-Feb-10 07:30N 44°46' E 020°21'0 0.0
2018-Feb-10 07:01N 44°46' E 020°21'0 0.0
2018-Feb-10 06:30N 44°46' E 020°21'0 0.0
2018-Feb-10 06:00N 44°46' E 020°21'0 0.0
2018-Feb-10 05:30N 44°46' E 020°21'0 0.0
2018-Feb-10 05:00N 44°46' E 020°21'0 0.0
2018-Feb-10 04:30N 44°46' E 020°21'0 0.0
2018-Feb-10 04:00N 44°46' E 020°21'0 0.0
2018-Feb-10 03:30N 44°46' E 020°21'0 0.0
2018-Feb-10 03:00N 44°46' E 020°21'0 0.0
2018-Feb-10 02:30N 44°46' E 020°21'0 0.0
2018-Feb-10 02:00N 44°46' E 020°21'0 0.0
2018-Feb-10 01:30N 44°46' E 020°21'0 0.0
2018-Feb-10 01:00N 44°46' E 020°21'0 0.0
2018-Feb-10 00:30N 44°46' E 020°21'0 0.0
2018-Feb-10 00:00N 44°46' E 020°21'0 0.0
2018-Feb-09 23:30N 44°46' E 020°21'0 0.0
2018-Feb-09 23:00N 44°46' E 020°21'0 0.0
2018-Feb-09 22:46N 44°46' E 020°21'0 0.0
2018-Feb-09 22:30N 44°46' E 020°21'0 0.0
2018-Feb-09 22:00N 44°46' E 020°21'0 0.0
2018-Feb-09 20:30N 44°46' E 020°21'0 0.0
2018-Feb-09 18:30N 44°46' E 020°21'0 0.0
2018-Feb-09 18:01N 44°46' E 020°21'0 0.0
2018-Feb-09 17:01N 44°46' E 020°21'0 0.0
2018-Feb-09 16:30N 44°46' E 020°21'0 0.0
2018-Feb-09 16:01N 44°46' E 020°21'0 0.0
2018-Feb-07 21:41N 44°46' E 020°21'0 0.0
2018-Feb-07 21:31N 44°46' E 020°21'0 0.0
2018-Feb-07 09:30N 44°46' E 020°21'0 0.0
2018-Feb-07 09:00N 44°46' E 020°21'0 0.0
2018-Feb-07 08:30N 44°46' E 020°21'0 0.0
2018-Feb-07 08:00N 44°46' E 020°21'0 0.0
2018-Feb-07 07:30N 44°46' E 020°21'0 0.0
2018-Feb-07 07:00N 44°46' E 020°21'0 0.0
2018-Feb-07 06:30N 44°46' E 020°21'0 0.0
2018-Feb-07 06:00N 44°46' E 020°21'0 0.0
2018-Feb-07 05:30N 44°46' E 020°21'0 0.0
2018-Feb-07 05:00N 44°46' E 020°21'0 0.0
2018-Feb-07 04:30N 44°46' E 020°21'0 0.0
2018-Feb-07 04:00N 44°46' E 020°21'0 0.0
2018-Feb-07 03:30N 44°46' E 020°21'0 0.0
2018-Feb-07 03:00N 44°46' E 020°21'0 0.0
2018-Feb-07 02:30N 44°46' E 020°21'0 0.0
2018-Feb-07 02:00N 44°46' E 020°21'0 0.0
2018-Feb-07 01:30N 44°46' E 020°21'0 0.0
2018-Feb-07 01:00N 44°46' E 020°21'0 0.0
2018-Feb-07 00:30N 44°46' E 020°21'0 0.0
2018-Feb-07 00:00N 44°46' E 020°21'0 0.0
2018-Feb-06 19:00N 44°46' E 020°21'0 0.0
2018-Feb-06 15:57N 44°46' E 020°21'0 0.0
2018-Feb-06 14:51N 44°46' E 020°21'0 0.0
2018-Feb-06 13:30N 44°46' E 020°21'0 0.0
2018-Feb-06 11:58N 44°46' E 020°21'0 0.0
2018-Feb-06 11:30N 44°46' E 020°21'0 0.0
2018-Feb-06 11:00N 44°46' E 020°21'0 0.0
2018-Feb-06 10:30N 44°46' E 020°21'0 0.0
2018-Feb-06 10:00N 44°46' E 020°21'0 0.0
2018-Feb-06 09:30N 44°46' E 020°21'0 0.0
2018-Feb-06 09:00N 44°46' E 020°21'0 0.0
2018-Feb-06 08:30N 44°46' E 020°21'0 0.0
2018-Feb-06 08:00N 44°46' E 020°21'0 0.0
2018-Feb-06 07:30N 44°46' E 020°21'0 0.0
2018-Feb-06 07:00N 44°46' E 020°21'0 0.0
2018-Feb-06 06:30N 44°46' E 020°21'0 0.0
2018-Feb-06 06:00N 44°46' E 020°21'0 0.0
2018-Feb-06 05:30N 44°46' E 020°21'0 0.0
2018-Feb-06 05:00N 44°46' E 020°21'0 0.0
2018-Feb-06 04:30N 44°46' E 020°21'0 0.0
2018-Feb-06 04:00N 44°46' E 020°21'0 0.0
2018-Feb-06 03:30N 44°46' E 020°21'0 0.0
2018-Feb-06 03:00N 44°46' E 020°21'0 0.0
2018-Feb-06 02:30N 44°46' E 020°21'0 0.0
2018-Feb-06 02:00N 44°46' E 020°21'0 0.0
2018-Feb-06 01:30N 44°46' E 020°21'0 0.0
2018-Feb-06 01:00N 44°46' E 020°21'0 0.0
2018-Feb-06 00:30N 44°46' E 020°21'0 0.0
2018-Feb-06 00:00N 44°46' E 020°21'0 0.0
2018-Feb-05 23:30N 44°46' E 020°21'0 0.0
2018-Feb-05 23:00N 44°46' E 020°21'0 0.0
2018-Feb-05 22:30N 44°46' E 020°21'0 0.0
2018-Feb-05 22:00N 44°46' E 020°21'0 0.0
2018-Feb-05 21:30N 44°46' E 020°21'0 0.0
2018-Feb-05 21:00N 44°46' E 020°21'0 0.0
2018-Feb-05 19:00N 44°46' E 020°21'0 0.0
2018-Feb-05 15:00N 44°46' E 020°21'0 0.0
2018-Feb-05 14:30N 44°46' E 020°21'0 0.0
2018-Feb-05 13:30N 44°46' E 020°21'0 0.0
2018-Feb-05 13:00N 44°46' E 020°21'0 0.0
2018-Feb-05 10:00N 44°46' E 020°21'0 0.0
2018-Feb-05 08:59N 44°46' E 020°21'0 0.0
2018-Feb-05 08:30N 44°46' E 020°21'0 0.0
2018-Feb-05 08:00N 44°46' E 020°21'0 0.0
2018-Feb-05 07:30N 44°46' E 020°21'0 0.0
2018-Feb-05 07:00N 44°46' E 020°21'0 0.0
2018-Feb-05 06:30N 44°46' E 020°21'0 0.0
2018-Feb-05 05:30N 44°46' E 020°21'0 0.0
2018-Feb-05 05:00N 44°46' E 020°21'0 0.0
2018-Feb-05 04:30N 44°46' E 020°21'0 0.0
2018-Feb-05 04:00N 44°46' E 020°21'0 0.0
2018-Feb-05 03:30N 44°46' E 020°21'0 0.0
2018-Feb-05 03:00N 44°46' E 020°21'0 0.0
2018-Feb-05 02:30N 44°46' E 020°21'0 0.0
2018-Feb-05 02:00N 44°46' E 020°21'0 0.0
2018-Feb-05 01:30N 44°46' E 020°21'0 0.0
2018-Feb-05 01:00N 44°46' E 020°21'0 0.0
2018-Feb-05 00:30N 44°46' E 020°21'0 0.0
2018-Feb-05 00:00N 44°46' E 020°21'0 0.0
2018-Feb-04 23:31N 44°46' E 020°21'0 0.0
2018-Feb-04 23:01N 44°46' E 020°21'0 0.0
2018-Feb-04 22:30N 44°46' E 020°21'0 0.0
2018-Feb-04 22:01N 44°46' E 020°21'0 0.0
2018-Feb-04 21:31N 44°46' E 020°21'0 0.0
2018-Feb-04 21:01N 44°46' E 020°21'  
Track history (hours):
 
Tides and Currents Weather Stations Pressure Air Temp Water Temp Dewpoint Dewpoint Depression Visibility Wind Speed Wind Dir Waves Ship Positions

Quasimodo

Last reported at 2018-Feb-14 20:58 UTC. Time now 2018-Feb-21 17:36 UTC.
Position N 44°29' E 022°11'.

Length 110 m; draft 0.2 m.

Type: Ship. MMSI: 2525526.

Date/timePositionNaut miles runAvg speedWind from/ knotsBaromVisibWave heightAir tempDewpointWater temp
2018-Feb-14 20:58N 44°29' E 022°11'3 7.3
2018-Feb-14 20:30N 44°29' E 022°07'4 7.3
2018-Feb-14 20:00N 44°32' E 022°04'18 7.2
2018-Feb-14 17:32N 44°40' E 021°41'0 1.7
2018-Feb-14 17:30N 44°40' E 021°41'34 1.5
2018-Feb-13 19:09N 44°40' E 020°53'0 0.4
2018-Feb-13 18:59N 44°40' E 020°53'3 5.7
2018-Feb-13 18:30N 44°39' E 020°49'4 8.2
2018-Feb-13 18:00N 44°41' E 020°44'4 8.2
2018-Feb-13 17:30N 44°44' E 020°40'4 7.7
2018-Feb-13 17:00N 44°47' E 020°38'4 7.5
2018-Feb-13 16:30N 44°51' E 020°38'4 7.8
2018-Feb-13 16:00N 44°50' E 020°32'2 3.8
2018-Feb-13 15:30N 44°50' E 020°30'0 0.0
2018-Feb-13 15:00N 44°50' E 020°30'0 0.4
2018-Feb-13 14:30N 44°50' E 020°30'2 3.7
2018-Feb-13 14:00N 44°50' E 020°27'2 3.5
2018-Feb-13 13:30N 44°48' E 020°27'1 1.7
2018-Feb-13 13:00N 44°48' E 020°26'2 4.2
2018-Feb-13 12:30N 44°50' E 020°27'2 2.9
2018-Feb-13 11:59N 44°48' E 020°27'1 2.7
2018-Feb-13 11:30N 44°48' E 020°25'3 5.6
2018-Feb-13 11:00N 44°47' E 020°22'2 3.2
2018-Feb-13 10:31N 44°45' E 020°20'0 0.2
2018-Feb-13 10:00N 44°45' E 020°20'0 0.5
2018-Feb-13 09:30N 44°46' E 020°21'0 0.2
2018-Feb-13 09:00N 44°46' E 020°21'0 0.2
2018-Feb-13 08:30N 44°45' E 020°21'0 0.1
2018-Feb-13 08:00N 44°45' E 020°21'0 0.0
2018-Feb-13 07:30N 44°45' E 020°21'0 0.0
2018-Feb-13 07:00N 44°45' E 020°21'0 0.0
2018-Feb-13 06:30N 44°45' E 020°21'0 0.3
2018-Feb-13 06:00N 44°46' E 020°21'0 0.0
2018-Feb-13 05:31N 44°46' E 020°21'0 0.0
2018-Feb-13 05:00N 44°46' E 020°21'0 0.0
2018-Feb-13 04:30N 44°46' E 020°21'0 0.0
2018-Feb-13 04:00N 44°46' E 020°21'0 0.0
2018-Feb-13 03:30N 44°46' E 020°21'0 0.0
2018-Feb-13 03:00N 44°46' E 020°21'0 0.0
2018-Feb-13 02:29N 44°46' E 020°21'0 0.0
2018-Feb-13 02:00N 44°46' E 020°21'0 0.0
2018-Feb-13 01:30N 44°46' E 020°21'0 0.0
2018-Feb-13 01:01N 44°46' E 020°21'0 0.0
2018-Feb-13 00:31N 44°46' E 020°21'0 0.0
2018-Feb-13 00:01N 44°46' E 020°21'0 0.0
2018-Feb-12 23:31N 44°46' E 020°21'0 0.0
2018-Feb-12 23:00N 44°46' E 020°21'0 0.0
2018-Feb-12 22:31N 44°46' E 020°21'0 0.0
2018-Feb-12 22:00N 44°46' E 020°21'0 0.0
2018-Feb-12 21:30N 44°46' E 020°21'0 0.0
2018-Feb-12 21:00N 44°46' E 020°21'0 0.0
2018-Feb-12 20:31N 44°46' E 020°21'0 0.0
2018-Feb-12 20:00N 44°46' E 020°21'0 0.0
2018-Feb-12 19:30N 44°46' E 020°21'0 0.0
2018-Feb-12 19:00N 44°46' E 020°21'0 0.0
2018-Feb-12 18:30N 44°46' E 020°21'0 0.0
2018-Feb-12 18:01N 44°46' E 020°21'0 0.0
2018-Feb-12 17:31N 44°46' E 020°21'0 0.0
2018-Feb-12 17:00N 44°46' E 020°21'0 0.0
2018-Feb-12 16:30N 44°46' E 020°21'1 1.3
2018-Feb-12 16:00N 44°45' E 020°20'1 1.4
2018-Feb-12 15:31N 44°46' E 020°21'0 0.0
2018-Feb-12 15:01N 44°46' E 020°21'0 0.0
2018-Feb-12 14:31N 44°46' E 020°21'0 0.0
2018-Feb-12 14:00N 44°46' E 020°21'0 0.0
2018-Feb-12 13:30N 44°46' E 020°21'0 0.0
2018-Feb-12 13:00N 44°46' E 020°21'0 0.0
2018-Feb-12 12:24N 44°46' E 020°21'0 0.0
2018-Feb-12 12:00N 44°46' E 020°21'0 0.0
2018-Feb-12 11:30N 44°46' E 020°21'0 0.0
2018-Feb-12 11:00N 44°46' E 020°21'0 0.0
2018-Feb-12 10:30N 44°46' E 020°21'0 0.0
2018-Feb-12 10:00N 44°46' E 020°21'0 0.0
2018-Feb-12 09:30N 44°46' E 020°21'0 0.0
2018-Feb-12 09:00N 44°46' E 020°21'0 0.0
2018-Feb-12 08:30N 44°46' E 020°21'0 0.0
2018-Feb-12 08:00N 44°46' E 020°21'0 0.0
2018-Feb-12 07:30N 44°46' E 020°21'0 0.0
2018-Feb-12 07:00N 44°46' E 020°21'0 0.0
2018-Feb-12 06:30N 44°46' E 020°21'0 0.0
2018-Feb-12 05:57N 44°46' E 020°21'0 0.0
2018-Feb-12 05:30N 44°46' E 020°21'0 0.0
2018-Feb-12 05:00N 44°46' E 020°21'0 0.0
2018-Feb-12 04:30N 44°46' E 020°21'0 0.0
2018-Feb-12 04:00N 44°46' E 020°21'0 0.0
2018-Feb-12 03:31N 44°46' E 020°21'0 0.0
2018-Feb-12 03:00N 44°46' E 020°21'0 0.0
2018-Feb-12 02:31N 44°46' E 020°21'0 0.0
2018-Feb-12 02:00N 44°46' E 020°21'0 0.0
2018-Feb-12 01:30N 44°46' E 020°21'0 0.0
2018-Feb-12 01:00N 44°46' E 020°21'0 0.0
2018-Feb-12 00:30N 44°46' E 020°21'0 0.0
2018-Feb-12 00:00N 44°46' E 020°21'0 0.0
2018-Feb-11 23:30N 44°46' E 020°21'0 0.0
2018-Feb-11 23:00N 44°46' E 020°21'0 0.0
2018-Feb-11 22:31N 44°46' E 020°21'0 0.0
2018-Feb-11 22:00N 44°46' E 020°21'0 0.0
2018-Feb-11 21:30N 44°46' E 020°21'0 0.0
2018-Feb-11 21:01N 44°46' E 020°21'0 0.0
2018-Feb-11 20:29N 44°46' E 020°21'0 0.0
2018-Feb-11 20:00N 44°46' E 020°21'0 0.0
2018-Feb-11 19:31N 44°46' E 020°21'0 0.0
2018-Feb-11 19:00N 44°46' E 020°21'0 0.0
2018-Feb-11 18:31N 44°46' E 020°21'0 0.0
2018-Feb-11 18:00N 44°46' E 020°21'0 0.0
2018-Feb-11 17:30N 44°46' E 020°21'0 0.0
2018-Feb-11 17:00N 44°46' E 020°21'0 0.0
2018-Feb-11 16:30N 44°46' E 020°21'0 0.0
2018-Feb-11 16:00N 44°46' E 020°21'0 0.0
2018-Feb-11 15:31N 44°46' E 020°21'0 0.0
2018-Feb-11 15:00N 44°46' E 020°21'0 0.0
2018-Feb-11 14:30N 44°46' E 020°21'0 0.0
2018-Feb-11 14:00N 44°46' E 020°21'0 0.0
2018-Feb-11 13:31N 44°46' E 020°21'0 0.0
2018-Feb-11 13:00N 44°46' E 020°21'0 0.0
2018-Feb-11 12:30N 44°46' E 020°21'0 0.0
2018-Feb-11 12:00N 44°46' E 020°21'0 0.0
2018-Feb-11 11:30N 44°46' E 020°21'0 0.0
2018-Feb-11 11:00N 44°46' E 020°21'0 0.0
2018-Feb-11 10:30N 44°46' E 020°21'0 0.0
2018-Feb-11 10:01N 44°46' E 020°21'0 0.0
2018-Feb-11 09:30N 44°46' E 020°21'0 0.0
2018-Feb-11 09:00N 44°46' E 020°21'0 0.0
2018-Feb-11 08:30N 44°46' E 020°21'0 0.0
2018-Feb-11 08:01N 44°46' E 020°21'0 0.0
2018-Feb-11 07:30N 44°46' E 020°21'0 0.0
2018-Feb-11 07:00N 44°46' E 020°21'0 0.0
2018-Feb-11 06:30N 44°46' E 020°21'0 0.0
2018-Feb-11 06:00N 44°46' E 020°21'0 0.0
2018-Feb-11 05:30N 44°46' E 020°21'0 0.0
2018-Feb-11 05:00N 44°46' E 020°21'0 0.0
2018-Feb-11 04:31N 44°46' E 020°21'0 0.0
2018-Feb-11 04:00N 44°46' E 020°21'0 0.0
2018-Feb-11 03:30N 44°46' E 020°21'0 0.0
2018-Feb-11 03:00N 44°46' E 020°21'0 0.0
2018-Feb-11 02:30N 44°46' E 020°21'0 0.0
2018-Feb-11 02:00N 44°46' E 020°21'0 0.0
2018-Feb-11 01:31N 44°46' E 020°21'0 0.0
2018-Feb-11 01:00N 44°46' E 020°21'0 0.0
2018-Feb-11 00:31N 44°46' E 020°21'0 0.0
2018-Feb-11 00:01N 44°46' E 020°21'0 0.0
2018-Feb-10 23:31N 44°46' E 020°21'0 0.0
2018-Feb-10 23:00N 44°46' E 020°21'0 0.0
2018-Feb-10 22:30N 44°46' E 020°21'0 0.0
2018-Feb-10 22:00N 44°46' E 020°21'0 0.0
2018-Feb-10 21:31N 44°46' E 020°21'0 0.0
2018-Feb-10 21:00N 44°46' E 020°21'0 0.0
2018-Feb-10 20:30N 44°46' E 020°21'0 0.0
2018-Feb-10 20:00N 44°46' E 020°21'0 0.0
2018-Feb-10 19:30N 44°46' E 020°21'0 0.0
2018-Feb-10 19:00N 44°46' E 020°21'0 0.0
2018-Feb-10 18:31N 44°46' E 020°21'0 0.0
2018-Feb-10 18:01N 44°46' E 020°21'0 0.0
2018-Feb-10 17:30N 44°46' E 020°21'0 0.0
2018-Feb-10 17:00N 44°46' E 020°21'0 0.0
2018-Feb-10 16:30N 44°46' E 020°21'0 0.0
2018-Feb-10 16:00N 44°46' E 020°21'0 0.0
2018-Feb-10 15:31N 44°46' E 020°21'0 0.0
2018-Feb-10 15:00N 44°46' E 020°21'0 0.0
2018-Feb-10 14:30N 44°46' E 020°21'0 0.0
2018-Feb-10 14:01N 44°46' E 020°21'0 0.0
2018-Feb-10 13:31N 44°46' E 020°21'0 0.0
2018-Feb-10 13:00N 44°46' E 020°21'0 0.0
2018-Feb-10 12:30N 44°46' E 020°21'0 0.0
2018-Feb-10 12:00N 44°46' E 020°21'0 0.0
2018-Feb-10 11:30N 44°46' E 020°21'0 0.0
2018-Feb-10 11:00N 44°46' E 020°21'0 0.0
2018-Feb-10 10:30N 44°46' E 020°21'0 0.0
2018-Feb-10 10:00N 44°46' E 020°21'0 0.0
2018-Feb-10 09:30N 44°46' E 020°21'0 0.0
2018-Feb-10 09:00N 44°46' E 020°21'0 0.0
2018-Feb-10 08:30N 44°46' E 020°21'0 0.0
2018-Feb-10 08:00N 44°46' E 020°21'0 0.0
2018-Feb-10 07:30N 44°46' E 020°21'0 0.0
2018-Feb-10 07:01N 44°46' E 020°21'0 0.0
2018-Feb-10 06:30N 44°46' E 020°21'0 0.0
2018-Feb-10 06:00N 44°46' E 020°21'0 0.0
2018-Feb-10 05:30N 44°46' E 020°21'0 0.0
2018-Feb-10 05:00N 44°46' E 020°21'0 0.0
2018-Feb-10 04:30N 44°46' E 020°21'0 0.0
2018-Feb-10 04:00N 44°46' E 020°21'0 0.0
2018-Feb-10 03:30N 44°46' E 020°21'0 0.0
2018-Feb-10 03:00N 44°46' E 020°21'0 0.0
2018-Feb-10 02:30N 44°46' E 020°21'0 0.0
2018-Feb-10 02:00N 44°46' E 020°21'0 0.0
2018-Feb-10 01:30N 44°46' E 020°21'0 0.0
2018-Feb-10 01:00N 44°46' E 020°21'0 0.0
2018-Feb-10 00:30N 44°46' E 020°21'0 0.0
2018-Feb-10 00:00N 44°46' E 020°21'0 0.0
2018-Feb-09 23:30N 44°46' E 020°21'0 0.0
2018-Feb-09 23:00N 44°46' E 020°21'0 0.0
2018-Feb-09 22:46N 44°46' E 020°21'0 0.0
2018-Feb-09 22:30N 44°46' E 020°21'0 0.0
2018-Feb-09 22:00N 44°46' E 020°21'0 0.0
2018-Feb-09 20:30N 44°46' E 020°21'0 0.0
2018-Feb-09 18:30N 44°46' E 020°21'0 0.0
2018-Feb-09 18:01N 44°46' E 020°21'0 0.0
2018-Feb-09 17:01N 44°46' E 020°21'0 0.0
2018-Feb-09 16:30N 44°46' E 020°21'0 0.0
2018-Feb-09 16:01N 44°46' E 020°21'0 0.0
2018-Feb-07 21:41N 44°46' E 020°21'0 0.0
2018-Feb-07 21:31N 44°46' E 020°21'0 0.0
2018-Feb-07 09:30N 44°46' E 020°21'0 0.0
2018-Feb-07 09:00N 44°46' E 020°21'0 0.0
2018-Feb-07 08:30N 44°46' E 020°21'0 0.0
2018-Feb-07 08:00N 44°46' E 020°21'0 0.0
2018-Feb-07 07:30N 44°46' E 020°21'0 0.0
2018-Feb-07 07:00N 44°46' E 020°21'0 0.0
2018-Feb-07 06:30N 44°46' E 020°21'0 0.0
2018-Feb-07 06:00N 44°46' E 020°21'0 0.0
2018-Feb-07 05:30N 44°46' E 020°21'0 0.0
2018-Feb-07 05:00N 44°46' E 020°21'0 0.0
2018-Feb-07 04:30N 44°46' E 020°21'0 0.0
2018-Feb-07 04:00N 44°46' E 020°21'0 0.0
2018-Feb-07 03:30N 44°46' E 020°21'0 0.0
2018-Feb-07 03:00N 44°46' E 020°21'0 0.0
2018-Feb-07 02:30N 44°46' E 020°21'0 0.0
2018-Feb-07 02:00N 44°46' E 020°21'0 0.0
2018-Feb-07 01:30N 44°46' E 020°21'0 0.0
2018-Feb-07 01:00N 44°46' E 020°21'0 0.0
2018-Feb-07 00:30N 44°46' E 020°21'0 0.0
2018-Feb-07 00:00N 44°46' E 020°21'0 0.0
2018-Feb-06 19:00N 44°46' E 020°21'0 0.0
2018-Feb-06 15:57N 44°46' E 020°21'0 0.0
2018-Feb-06 14:51N 44°46' E 020°21'0 0.0
2018-Feb-06 13:30N 44°46' E 020°21'0 0.0
2018-Feb-06 11:58N 44°46' E 020°21'0 0.0
2018-Feb-06 11:30N 44°46' E 020°21'0 0.0
2018-Feb-06 11:00N 44°46' E 020°21'0 0.0
2018-Feb-06 10:30N 44°46' E 020°21'0 0.0
2018-Feb-06 10:00N 44°46' E 020°21'0 0.0
2018-Feb-06 09:30N 44°46' E 020°21'0 0.0
2018-Feb-06 09:00N 44°46' E 020°21'0 0.0
2018-Feb-06 08:30N 44°46' E 020°21'0 0.0
2018-Feb-06 08:00N 44°46' E 020°21'0 0.0
2018-Feb-06 07:30N 44°46' E 020°21'0 0.0
2018-Feb-06 07:00N 44°46' E 020°21'0 0.0
2018-Feb-06 06:30N 44°46' E 020°21'0 0.0
2018-Feb-06 06:00N 44°46' E 020°21'0 0.0
2018-Feb-06 05:30N 44°46' E 020°21'0 0.0
2018-Feb-06 05:00N 44°46' E 020°21'0 0.0
2018-Feb-06 04:30N 44°46' E 020°21'0 0.0
2018-Feb-06 04:00N 44°46' E 020°21'0 0.0
2018-Feb-06 03:30N 44°46' E 020°21'0 0.0
2018-Feb-06 03:00N 44°46' E 020°21'0 0.0
2018-Feb-06 02:30N 44°46' E 020°21'0 0.0
2018-Feb-06 02:00N 44°46' E 020°21'0 0.0
2018-Feb-06 01:30N 44°46' E 020°21'0 0.0
2018-Feb-06 01:00N 44°46' E 020°21'0 0.0
2018-Feb-06 00:30N 44°46' E 020°21'0 0.0
2018-Feb-06 00:00N 44°46' E 020°21'0 0.0
2018-Feb-05 23:30N 44°46' E 020°21'0 0.0
2018-Feb-05 23:00N 44°46' E 020°21'0 0.0
2018-Feb-05 22:30N 44°46' E 020°21'0 0.0
2018-Feb-05 22:00N 44°46' E 020°21'0 0.0
2018-Feb-05 21:30N 44°46' E 020°21'0 0.0
2018-Feb-05 21:00N 44°46' E 020°21'0 0.0
2018-Feb-05 19:00N 44°46' E 020°21'0 0.0
2018-Feb-05 15:00N 44°46' E 020°21'0 0.0
2018-Feb-05 14:30N 44°46' E 020°21'0 0.0
2018-Feb-05 13:30N 44°46' E 020°21'0 0.0
2018-Feb-05 13:00N 44°46' E 020°21'0 0.0
2018-Feb-05 10:00N 44°46' E 020°21'0 0.0
2018-Feb-05 08:59N 44°46' E 020°21'0 0.0
2018-Feb-05 08:30N 44°46' E 020°21'0 0.0
2018-Feb-05 08:00N 44°46' E 020°21'0 0.0
2018-Feb-05 07:30N 44°46' E 020°21'0 0.0
2018-Feb-05 07:00N 44°46' E 020°21'0 0.0
2018-Feb-05 06:30N 44°46' E 020°21'0 0.0
2018-Feb-05 05:30N 44°46' E 020°21'0 0.0
2018-Feb-05 05:00N 44°46' E 020°21'0 0.0
2018-Feb-05 04:30N 44°46' E 020°21'0 0.0
2018-Feb-05 04:00N 44°46' E 020°21'0 0.0
2018-Feb-05 03:30N 44°46' E 020°21'0 0.0
2018-Feb-05 03:00N 44°46' E 020°21'0 0.0
2018-Feb-05 02:30N 44°46' E 020°21'0 0.0
2018-Feb-05 02:00N 44°46' E 020°21'0 0.0
2018-Feb-05 01:30N 44°46' E 020°21'0 0.0
2018-Feb-05 01:00N 44°46' E 020°21'0 0.0
2018-Feb-05 00:30N 44°46' E 020°21'0 0.0
2018-Feb-05 00:00N 44°46' E 020°21'0 0.0
2018-Feb-04 23:31N 44°46' E 020°21'0 0.0
2018-Feb-04 23:01N 44°46' E 020°21'0 0.0
2018-Feb-04 22:30N 44°46' E 020°21'0 0.0
2018-Feb-04 22:01N 44°46' E 020°21'0 0.0
2018-Feb-04 21:31N 44°46' E 020°21'0 0.0
2018-Feb-04 21:01N 44°46' E 020°21'  

Dump ship's entire track history